Summit Lake, Wisconsin
Current Conditions -  °F | °C
As of 8:15 AM on Saturday 20 Dec 2014 (Local Time) from KAIG Reporting Station
Haze Haze  
Wind Chill: 22°   Ceiling: 500
Heat Index: 22°   Visibility: 2mi
Dew Point: 21°   Wind: 3mph
Humidity: 99%   Direction: 170°S
Pressure: 30.2"   Gusts: NA
Location:  45.38°N, 89.19°W
Report Text: KAIG 201415Z AUTO 17003KT 2SM BR OVC005 M06/M06 A3020 RMK AO2 T10571059
Loading
Personal Weather Stations






























Interactive Weather Map New forecast layout! Learn more

10-Day Weather Forecast

Advertisements
Track Severe Weather on mobile